createdAt,value
2022-12-22T00:00:01.637Z,36.65
2022-12-22T00:10:24.282Z,37.25
2022-12-22T00:20:45.227Z,38.05
2022-12-22T00:31:08.559Z,38.47
2022-12-22T00:41:30.885Z,37.20
2022-12-22T00:51:52.472Z,40.50
2022-12-22T01:02:13.837Z,40.65
2022-12-22T01:12:43.547Z,38.40
2022-12-22T01:23:10.351Z,35.40
2022-12-22T01:33:32.177Z,37.60
2022-12-22T01:43:53.962Z,38.00
2022-12-22T01:54:16.753Z,36.03
2022-12-22T02:04:40.238Z,36.65
2022-12-22T02:15:31.457Z,37.88
2022-12-22T02:26:05.806Z,38.45
2022-12-22T02:36:47.805Z,35.85
2022-12-22T02:47:22.010Z,36.75
2022-12-22T02:57:42.396Z,36.97
2022-12-22T03:08:07.999Z,37.10
2022-12-22T03:18:31.157Z,36.22
2022-12-22T03:28:35.860Z,37.22
2022-12-22T03:38:38.761Z,38.00
2022-12-22T03:48:40.861Z,35.97
2022-12-22T03:58:43.909Z,37.42
2022-12-22T04:08:54.898Z,40.25
2022-12-22T04:18:57.504Z,40.28
2022-12-22T04:28:59.394Z,42.20
2022-12-22T04:39:04.216Z,40.08
2022-12-22T04:49:07.982Z,41.78
2022-12-22T05:09:38.650Z,40.03
2022-12-22T05:19:40.307Z,39.40
2022-12-22T05:29:42.172Z,41.35
2022-12-22T05:39:44.024Z,40.22
2022-12-22T05:49:47.744Z,42.88
2022-12-22T05:59:57.483Z,42.13
2022-12-22T06:10:12.850Z,40.08
2022-12-22T06:20:15.156Z,41.35
2022-12-22T06:30:17.677Z,41.17
2022-12-22T06:40:19.508Z,42.53
2022-12-22T06:50:21.311Z,44.92
2022-12-22T07:00:25.264Z,46.17
2022-12-22T07:10:47.729Z,42.97
2022-12-22T07:20:49.391Z,43.65
2022-12-22T07:30:52.058Z,40.00
2022-12-22T07:41:04.928Z,43.30
2022-12-22T07:51:07.792Z,39.65
2022-12-22T08:01:10.802Z,39.38
2022-12-22T08:11:21.476Z,39.22
2022-12-22T08:21:25.014Z,41.53
2022-12-22T08:31:29.026Z,40.17
2022-12-22T08:51:52.688Z,43.45
2022-12-22T09:01:54.472Z,43.55
2022-12-22T09:11:57.575Z,46.63
2022-12-22T09:22:00.618Z,46.83
2022-12-22T09:32:05.885Z,43.90
2022-12-22T09:42:17.519Z,44.67
2022-12-22T09:52:40.912Z,42.40
2022-12-22T10:03:07.704Z,39.58
2022-12-22T10:13:18.067Z,38.60
2022-12-22T10:23:30.861Z,39.33
2022-12-22T10:33:34.880Z,47.25
2022-12-22T10:53:51.738Z,46.10
2022-12-22T11:03:53.833Z,43.80
2022-12-22T11:14:19.824Z,39.97
2022-12-22T11:24:33.881Z,36.72
2022-12-22T11:35:14.909Z,37.35
2022-12-22T11:45:44.886Z,41.78
2022-12-22T11:56:20.877Z,40.30
2022-12-22T12:07:00.802Z,42.15
2022-12-22T12:17:33.078Z,41.55
2022-12-22T12:27:51.945Z,44.33
2022-12-22T12:38:03.542Z,44.05
2022-12-22T12:48:20.320Z,43.85
2022-12-22T12:58:40.401Z,44.72
2022-12-22T13:08:53.199Z,44.00
2022-12-22T13:19:00.290Z,44.13
2022-12-22T13:29:29.419Z,44.60
2022-12-22T13:39:31.984Z,41.42
2022-12-22T13:50:07.356Z,46.97
2022-12-22T14:00:01.975Z,43.07
2022-12-22T14:10:07.544Z,49.60
2022-12-22T14:20:27.716Z,47.08
2022-12-22T14:30:38.956Z,48.30
2022-12-22T14:40:43.721Z,46.92
2022-12-22T14:50:54.267Z,44.28
2022-12-22T15:01:19.085Z,50.33
2022-12-22T15:11:23.906Z,52.55
2022-12-22T15:21:25.814Z,55.35
2022-12-22T15:31:28.873Z,57.72
2022-12-22T15:41:30.650Z,55.37
2022-12-22T15:51:38.552Z,56.97
2022-12-22T16:01:40.328Z,60.95
2022-12-22T16:11:43.392Z,63.42
2022-12-22T16:21:52.148Z,63.10
2022-12-22T16:31:54.897Z,66.53
2022-12-22T16:41:59.538Z,60.67
2022-12-22T16:52:02.187Z,68.03
2022-12-22T17:02:04.718Z,62.85
2022-12-22T17:12:07.680Z,68.05
2022-12-22T17:22:25.300Z,64.57
2022-12-22T17:32:27.012Z,66.60
2022-12-22T17:42:31.800Z,67.78
2022-12-22T17:52:34.117Z,70.28
2022-12-22T18:02:36.070Z,62.60
2022-12-22T18:12:40.073Z,64.53
2022-12-22T18:22:54.776Z,70.22
2022-12-22T18:32:57.278Z,66.68
2022-12-22T18:43:00.441Z,56.50
2022-12-22T18:53:06.518Z,60.13
2022-12-22T19:03:23.580Z,58.20
2022-12-22T19:13:36.044Z,61.40
2022-12-22T19:23:37.965Z,69.68
2022-12-22T19:33:42.639Z,62.15
2022-12-22T19:43:50.707Z,65.45
2022-12-22T19:53:54.837Z,63.80
2022-12-22T20:13:59.601Z,66.63
2022-12-22T20:24:01.960Z,69.93
2022-12-22T20:34:05.039Z,67.00
2022-12-22T20:44:06.986Z,68.40
2022-12-22T20:54:16.722Z,72.03
2022-12-22T21:04:21.055Z,78.63
2022-12-22T21:14:22.965Z,71.47
2022-12-22T21:24:24.674Z,79.00
2022-12-22T21:34:32.594Z,73.07
2022-12-22T21:44:38.670Z,73.68
2022-12-22T21:54:40.802Z,79.38
2022-12-22T22:04:46.742Z,76.55
2022-12-22T22:14:55.068Z,73.93
2022-12-22T22:24:56.731Z,82.93
2022-12-22T22:35:01.440Z,74.40
2022-12-22T22:45:04.090Z,73.53
2022-12-22T22:55:07.145Z,69.30
2022-12-22T23:05:14.066Z,66.33
2022-12-22T23:15:18.919Z,71.28
2022-12-22T23:25:22.082Z,62.88
2022-12-22T23:35:23.730Z,62.17
2022-12-22T23:45:29.012Z,64.32
2022-12-22T23:55:31.681Z,59.83
